createdAt,value
2018-07-03T00:00:32.598Z,16.56
2018-07-03T00:01:32.543Z,16.47
2018-07-03T00:02:32.517Z,16.50
2018-07-03T00:03:32.509Z,16.49
2018-07-03T00:04:32.454Z,16.53
2018-07-03T00:05:32.448Z,16.35
2018-07-03T00:06:32.388Z,16.16
2018-07-03T00:07:32.348Z,16.12
2018-07-03T00:08:32.316Z,16.05
2018-07-03T00:09:32.282Z,16.12
2018-07-03T00:10:32.248Z,15.94
2018-07-03T00:11:32.232Z,16.00
2018-07-03T00:12:32.192Z,15.95
2018-07-03T00:13:32.353Z,15.97
2018-07-03T00:14:32.127Z,16.00
2018-07-03T00:15:32.101Z,16.08
2018-07-03T00:16:32.063Z,16.10
2018-07-03T00:17:32.016Z,16.23
2018-07-03T00:18:31.986Z,16.24
2018-07-03T00:19:31.958Z,16.16
2018-07-03T00:20:31.924Z,16.28
2018-07-03T00:21:32.681Z,16.20
2018-07-03T00:22:31.852Z,16.21
2018-07-03T00:23:31.819Z,16.13
2018-07-03T00:24:31.787Z,16.12
2018-07-03T00:25:31.753Z,16.08
2018-07-03T00:26:31.718Z,15.95
2018-07-03T00:27:32.023Z,15.97
2018-07-03T00:28:31.651Z,15.97
2018-07-03T00:29:31.633Z,15.92
2018-07-03T00:30:31.618Z,15.84
2018-07-03T00:31:31.561Z,15.77
2018-07-03T00:32:31.527Z,15.67
2018-07-03T00:33:31.490Z,15.72
2018-07-03T00:34:31.455Z,15.67
2018-07-03T00:35:31.443Z,15.64
2018-07-03T00:36:31.387Z,15.67
2018-07-03T00:37:31.363Z,15.58
2018-07-03T00:38:31.322Z,15.57
2018-07-03T00:39:31.322Z,15.55
2018-07-03T00:40:31.288Z,15.54
2018-07-03T00:41:31.233Z,15.58
2018-07-03T00:42:31.189Z,15.44
2018-07-03T00:43:31.158Z,15.42
2018-07-03T00:44:31.170Z,15.44
2018-07-03T00:45:31.127Z,15.43
2018-07-03T00:46:31.678Z,15.46
2018-07-03T00:47:31.027Z,15.46
2018-07-03T00:48:30.999Z,15.49
2018-07-03T00:49:30.956Z,15.43
2018-07-03T00:50:30.936Z,15.51
2018-07-03T00:51:30.891Z,15.55
2018-07-03T00:52:30.855Z,15.52
2018-07-03T00:53:30.822Z,15.55
2018-07-03T00:54:30.794Z,15.57
2018-07-03T00:55:30.810Z,15.57
2018-07-03T00:56:30.757Z,15.61
2018-07-03T00:57:30.700Z,15.75
2018-07-03T00:58:30.655Z,15.70
2018-07-03T00:59:30.678Z,15.83
2018-07-03T01:00:30.603Z,15.79
2018-07-03T01:01:30.601Z,15.80
2018-07-03T01:02:30.569Z,15.88
2018-07-03T01:03:30.504Z,15.80
2018-07-03T01:04:30.462Z,15.72
2018-07-03T01:05:30.421Z,15.76
2018-07-03T01:06:30.420Z,15.65
2018-07-03T01:07:30.365Z,15.67
2018-07-03T01:08:30.328Z,15.64
2018-07-03T01:09:30.296Z,15.47
2018-07-03T01:10:30.259Z,15.54
2018-07-03T01:11:30.277Z,15.46
2018-07-03T01:12:30.199Z,15.49
2018-07-03T01:13:30.162Z,15.40
2018-07-03T01:14:30.121Z,15.39
2018-07-03T01:15:30.090Z,15.51
2018-07-03T01:16:30.086Z,15.58
2018-07-03T01:17:30.022Z,15.57
2018-07-03T01:18:29.991Z,15.61
2018-07-03T01:19:29.969Z,15.44
2018-07-03T01:20:29.921Z,15.35
2018-07-03T01:21:29.896Z,15.25
2018-07-03T01:22:29.849Z,15.18
2018-07-03T01:23:29.822Z,15.21
2018-07-03T01:24:29.817Z,15.10
2018-07-03T01:25:29.755Z,15.06
2018-07-03T01:26:29.719Z,15.03
2018-07-03T01:27:29.686Z,15.15
2018-07-03T01:28:29.652Z,15.21
2018-07-03T01:29:29.645Z,15.09
2018-07-03T01:30:29.616Z,15.17
2018-07-03T01:31:29.583Z,15.06
2018-07-03T01:32:29.525Z,14.94
2018-07-03T01:33:29.491Z,14.91
2018-07-03T01:34:29.475Z,14.82
2018-07-03T01:35:29.416Z,14.89
2018-07-03T01:36:29.395Z,14.88
2018-07-03T01:37:29.347Z,14.78
2018-07-03T01:38:29.319Z,14.78
2018-07-03T01:39:29.285Z,14.73
2018-07-03T01:40:29.261Z,14.72
2018-07-03T01:41:29.216Z,14.55
2018-07-03T01:42:29.190Z,14.58
2018-07-03T01:43:29.149Z,14.48
2018-07-03T01:44:29.113Z,14.47
2018-07-03T01:45:29.089Z,14.48
2018-07-03T01:46:29.045Z,14.44
2018-07-03T01:47:29.031Z,14.43
2018-07-03T01:48:28.983Z,14.32
2018-07-03T01:49:28.954Z,14.36
2018-07-03T01:50:28.931Z,14.25
2018-07-03T01:51:28.906Z,14.15
2018-07-03T01:52:28.875Z,14.22
2018-07-03T01:53:28.811Z,14.23
2018-07-03T01:54:28.776Z,14.22
2018-07-03T01:55:28.744Z,14.14
2018-07-03T01:56:28.731Z,14.14
2018-07-03T01:57:28.674Z,14.10
2018-07-03T01:58:28.645Z,14.04
2018-07-03T01:59:28.609Z,13.97
2018-07-03T02:00:28.577Z,14.03
2018-07-03T02:01:28.539Z,13.89
2018-07-03T02:02:28.508Z,13.90
2018-07-03T02:03:28.538Z,13.77
2018-07-03T02:04:28.438Z,13.74
2018-07-03T02:05:28.409Z,13.56
2018-07-03T02:06:28.392Z,13.56
2018-07-03T02:07:28.340Z,13.50
2018-07-03T02:08:28.336Z,13.41
2018-07-03T02:09:28.271Z,13.42
2018-07-03T02:10:28.250Z,13.37
2018-07-03T02:11:28.211Z,13.33
2018-07-03T02:12:28.166Z,13.23
2018-07-03T02:13:28.146Z,13.28
2018-07-03T02:14:28.101Z,13.13
2018-07-03T02:15:28.065Z,13.09
2018-07-03T02:16:28.033Z,13.13
2018-07-03T02:17:28.003Z,13.08
2018-07-03T02:18:27.967Z,12.98
2018-07-03T02:19:27.935Z,12.94
2018-07-03T02:20:27.906Z,12.90
2018-07-03T02:21:27.863Z,12.86
2018-07-03T02:22:27.829Z,12.82
2018-07-03T02:23:27.801Z,12.75
2018-07-03T02:24:27.755Z,12.79
2018-07-03T02:25:27.726Z,12.65
2018-07-03T02:26:27.686Z,12.70
2018-07-03T02:27:27.667Z,12.60
2018-07-03T02:28:27.623Z,12.58
2018-07-03T02:29:27.586Z,12.68
2018-07-03T02:30:27.553Z,12.62
2018-07-03T02:31:27.515Z,12.62
2018-07-03T02:32:27.493Z,12.67
2018-07-03T02:33:27.447Z,12.64
2018-07-03T02:34:27.429Z,12.62
2018-07-03T02:35:27.382Z,12.62
2018-07-03T02:36:27.380Z,12.61
2018-07-03T02:37:27.314Z,12.60
2018-07-03T02:38:27.283Z,12.60
2018-07-03T02:39:27.249Z,12.64
2018-07-03T02:40:27.204Z,12.68
2018-07-03T02:41:27.174Z,12.64
2018-07-03T02:42:27.154Z,12.60
2018-07-03T02:43:27.107Z,12.54
2018-07-03T02:44:27.068Z,12.50
2018-07-03T02:45:27.038Z,12.36
2018-07-03T02:46:27.011Z,12.47
2018-07-03T02:47:26.967Z,12.46
2018-07-03T02:48:26.930Z,12.36
2018-07-03T02:49:26.898Z,12.31
2018-07-03T02:50:26.860Z,12.39
2018-07-03T02:51:26.826Z,12.35
2018-07-03T02:52:26.849Z,12.37
2018-07-03T02:53:26.756Z,12.32
2018-07-03T02:54:26.720Z,12.36
2018-07-03T02:55:26.693Z,12.27
2018-07-03T02:56:26.651Z,12.42
2018-07-03T02:57:26.619Z,12.36
2018-07-03T02:58:26.585Z,12.39
2018-07-03T02:59:26.558Z,12.37
2018-07-03T03:00:26.524Z,12.37
2018-07-03T03:01:26.479Z,12.32
2018-07-03T03:02:26.444Z,12.47
2018-07-03T03:03:26.408Z,12.49
2018-07-03T03:04:26.375Z,12.57
2018-07-03T03:05:26.355Z,12.50
2018-07-03T03:06:26.313Z,12.47
2018-07-03T03:07:26.270Z,12.55
2018-07-03T03:08:26.267Z,12.50
2018-07-03T03:09:26.202Z,12.50
2018-07-03T03:10:26.165Z,12.55
2018-07-03T03:11:26.152Z,12.53
2018-07-03T03:12:26.097Z,12.45
2018-07-03T03:13:26.134Z,12.47
2018-07-03T03:14:26.037Z,12.32
2018-07-03T03:15:25.990Z,12.36
2018-07-03T03:16:25.962Z,12.37
2018-07-03T03:17:25.953Z,12.43
2018-07-03T03:18:25.910Z,12.36
2018-07-03T03:19:25.853Z,12.36
2018-07-03T03:20:25.823Z,12.36
2018-07-03T03:21:25.783Z,12.37
2018-07-03T03:22:25.779Z,12.37
2018-07-03T03:23:25.711Z,12.36
2018-07-03T03:24:25.676Z,12.35
2018-07-03T03:25:25.671Z,12.37
2018-07-03T03:26:25.631Z,12.40
2018-07-03T03:27:25.570Z,12.28
2018-07-03T03:28:25.932Z,12.25
2018-07-03T03:29:25.525Z,12.29
2018-07-03T03:30:25.473Z,12.25
2018-07-03T03:31:25.435Z,12.07
2018-07-03T03:32:25.400Z,12.21
2018-07-03T03:33:25.365Z,12.04
2018-07-03T03:34:25.329Z,12.00
2018-07-03T03:35:25.303Z,11.97
2018-07-03T03:36:25.264Z,11.87
2018-07-03T03:37:25.226Z,11.75
2018-07-03T03:38:25.249Z,11.84
2018-07-03T03:39:25.159Z,11.83
2018-07-03T03:40:25.127Z,11.81
2018-07-03T03:41:25.087Z,11.72
2018-07-03T03:42:25.055Z,11.73
2018-07-03T03:43:25.017Z,11.78
2018-07-03T03:44:24.979Z,11.84
2018-07-03T03:45:24.943Z,11.83
2018-07-03T03:46:24.907Z,11.80
2018-07-03T03:47:24.887Z,11.88
2018-07-03T03:48:24.836Z,11.81
2018-07-03T03:49:24.808Z,11.87
2018-07-03T03:50:24.768Z,11.87
2018-07-03T03:51:24.745Z,11.84
2018-07-03T03:52:24.699Z,11.83
2018-07-03T03:53:24.690Z,11.94
2018-07-03T03:54:24.640Z,11.94
2018-07-03T03:55:24.598Z,11.91
2018-07-03T03:56:24.560Z,12.07
2018-07-03T03:57:24.522Z,12.07
2018-07-03T03:58:24.489Z,12.09
2018-07-03T03:59:24.460Z,12.21
2018-07-03T04:00:24.431Z,12.12
2018-07-03T04:01:24.391Z,12.25
2018-07-03T04:02:24.350Z,12.24
2018-07-03T04:03:24.317Z,12.29
2018-07-03T04:04:24.928Z,12.24
2018-07-03T04:05:24.248Z,12.36
2018-07-03T04:06:24.213Z,12.46
2018-07-03T04:07:24.181Z,12.55
2018-07-03T04:08:24.140Z,12.65
2018-07-03T04:09:24.103Z,12.67
2018-07-03T04:10:24.073Z,12.64
2018-07-03T04:11:24.038Z,12.73
2018-07-03T04:12:24.002Z,12.78
2018-07-03T04:13:23.966Z,12.80
2018-07-03T04:14:23.940Z,12.85
2018-07-03T04:15:23.895Z,12.85
2018-07-03T04:16:23.862Z,13.08
2018-07-03T04:17:23.829Z,13.08
2018-07-03T04:18:23.799Z,13.11
2018-07-03T04:19:23.758Z,13.11
2018-07-03T04:20:23.727Z,13.12
2018-07-03T04:21:23.696Z,13.23
2018-07-03T04:22:23.670Z,13.41
2018-07-03T04:23:23.624Z,13.35
2018-07-03T04:24:23.585Z,13.42
2018-07-03T04:25:23.556Z,13.52
2018-07-03T04:26:23.517Z,13.59
2018-07-03T04:27:23.484Z,13.74
2018-07-03T04:28:23.484Z,13.63
2018-07-03T04:29:23.420Z,13.77
2018-07-03T04:30:23.382Z,13.85
2018-07-03T04:31:23.350Z,13.86
2018-07-03T04:32:23.317Z,13.96
2018-07-03T04:33:23.282Z,14.11
2018-07-03T04:34:23.259Z,14.15
2018-07-03T04:35:23.216Z,14.14
2018-07-03T04:36:23.180Z,14.20
2018-07-03T04:37:23.139Z,14.20
2018-07-03T04:38:23.111Z,14.22
2018-07-03T04:39:23.082Z,14.26
2018-07-03T04:40:23.042Z,14.30
2018-07-03T04:41:23.067Z,14.36
2018-07-03T04:42:22.971Z,14.45
2018-07-03T04:43:22.940Z,14.54
2018-07-03T04:44:22.915Z,14.59
2018-07-03T04:45:22.868Z,14.70
2018-07-03T04:46:22.836Z,14.69
2018-07-03T04:47:22.808Z,14.86
2018-07-03T04:48:22.769Z,14.97
2018-07-03T04:49:22.733Z,15.00
2018-07-03T04:50:22.737Z,15.18
2018-07-03T04:51:22.672Z,15.18
2018-07-03T04:52:23.540Z,15.37
2018-07-03T04:53:22.815Z,15.44
2018-07-03T04:54:22.566Z,15.59
2018-07-03T04:55:22.536Z,15.72
2018-07-03T04:56:22.499Z,15.76
2018-07-03T04:57:22.467Z,15.83
2018-07-03T04:58:22.433Z,15.83
2018-07-03T04:59:22.404Z,15.97
2018-07-03T05:00:22.674Z,16.08
2018-07-03T05:01:22.368Z,16.26
2018-07-03T05:02:22.307Z,16.31
2018-07-03T05:03:22.274Z,16.46
2018-07-03T05:04:22.237Z,16.64
2018-07-03T05:05:22.203Z,16.61
2018-07-03T05:06:22.198Z,16.61
2018-07-03T05:07:22.138Z,16.69
2018-07-03T05:08:22.105Z,16.72
2018-07-03T05:09:22.066Z,16.91
2018-07-03T05:10:22.043Z,16.99
2018-07-03T05:11:22.011Z,16.96
2018-07-03T05:12:21.970Z,16.99
2018-07-03T05:13:21.946Z,17.06
2018-07-03T05:14:21.917Z,17.06
2018-07-03T05:15:21.874Z,17.06
2018-07-03T05:16:21.842Z,17.19
2018-07-03T05:17:21.859Z,17.19
2018-07-03T05:18:21.777Z,17.16
2018-07-03T05:19:21.749Z,17.23
2018-07-03T05:20:21.716Z,17.36
2018-07-03T05:21:21.680Z,17.51
2018-07-03T05:22:21.650Z,17.57
2018-07-03T05:23:21.637Z,17.71
2018-07-03T05:24:21.587Z,17.74
2018-07-03T05:25:21.552Z,17.74
2018-07-03T05:26:21.517Z,17.85
2018-07-03T05:27:21.491Z,17.90
2018-07-03T05:28:21.455Z,17.95
2018-07-03T05:29:21.418Z,18.05
2018-07-03T05:30:21.391Z,18.05
2018-07-03T05:31:21.414Z,18.01
2018-07-03T05:32:21.327Z,18.11
2018-07-03T05:33:21.300Z,18.19
2018-07-03T05:34:21.260Z,18.37
2018-07-03T05:35:21.233Z,18.41
2018-07-03T05:36:21.194Z,18.40
2018-07-03T05:37:21.164Z,18.52
2018-07-03T05:38:21.144Z,18.60
2018-07-03T05:39:21.101Z,18.73
2018-07-03T05:40:21.068Z,18.80
2018-07-03T05:41:21.041Z,18.84
2018-07-03T05:42:21.004Z,18.77
2018-07-03T05:43:20.978Z,18.86
2018-07-03T05:44:20.949Z,18.89
2018-07-03T05:45:20.915Z,19.19
2018-07-03T05:46:20.881Z,19.29
2018-07-03T05:47:20.848Z,19.24
2018-07-03T05:48:20.818Z,19.45
2018-07-03T05:49:20.786Z,19.51
2018-07-03T05:50:20.850Z,19.59
2018-07-03T05:51:20.730Z,19.63
2018-07-03T05:52:20.850Z,19.63
2018-07-03T05:53:20.851Z,19.71
2018-07-03T05:54:20.633Z,19.71
2018-07-03T05:55:20.595Z,19.76
2018-07-03T05:56:20.583Z,19.89
2018-07-03T05:57:20.547Z,20.14
2018-07-03T05:58:20.555Z,20.32
2018-07-03T05:59:20.468Z,20.29
2018-07-03T06:00:20.446Z,20.25
2018-07-03T06:01:20.413Z,20.21
2018-07-03T06:02:20.381Z,20.34
2018-07-03T06:03:20.366Z,20.47
2018-07-03T06:04:20.324Z,20.66
2018-07-03T06:05:20.286Z,20.67
2018-07-03T06:06:20.258Z,20.75
2018-07-03T06:07:20.225Z,20.82
2018-07-03T06:08:20.204Z,20.88
2018-07-03T06:09:20.278Z,20.85
2018-07-03T06:10:20.133Z,20.96
2018-07-03T06:11:20.103Z,21.00
2018-07-03T06:12:20.071Z,21.02
2018-07-03T06:13:20.047Z,21.06
2018-07-03T06:14:20.010Z,21.06
2018-07-03T06:15:19.977Z,21.09
2018-07-03T06:16:19.951Z,21.12
2018-07-03T06:17:19.923Z,21.20
2018-07-03T06:18:19.892Z,21.30
2018-07-03T06:19:19.860Z,21.18
2018-07-03T06:20:19.837Z,21.29
2018-07-03T06:21:19.798Z,21.33
2018-07-03T06:22:19.771Z,21.32
2018-07-03T06:23:19.738Z,21.36
2018-07-03T06:24:19.702Z,21.35
2018-07-03T06:25:19.676Z,21.39
2018-07-03T06:26:19.654Z,21.40
2018-07-03T06:27:19.613Z,21.52
2018-07-03T06:28:19.591Z,21.69
2018-07-03T06:29:19.549Z,21.88
2018-07-03T06:30:19.522Z,22.11
2018-07-03T06:31:19.488Z,22.25
2018-07-03T06:32:19.459Z,22.29
2018-07-03T06:33:19.430Z,22.28
2018-07-03T06:34:19.412Z,22.45
2018-07-03T06:35:19.368Z,22.54
2018-07-03T06:36:19.343Z,22.72
2018-07-03T06:37:19.347Z,22.62
2018-07-03T06:38:19.284Z,22.62
2018-07-03T06:39:19.252Z,22.59
2018-07-03T06:40:19.224Z,22.60
2018-07-03T06:41:19.196Z,22.72
2018-07-03T06:42:19.166Z,22.90
2018-07-03T06:43:19.131Z,22.98
2018-07-03T06:44:19.106Z,23.17
2018-07-03T06:45:19.071Z,23.31
2018-07-03T06:46:19.052Z,23.41
2018-07-03T06:47:19.056Z,23.50
2018-07-03T06:48:18.985Z,23.80
2018-07-03T06:49:18.955Z,23.81
2018-07-03T06:50:18.924Z,24.03
2018-07-03T06:51:18.899Z,24.13
2018-07-03T06:52:18.866Z,24.05
2018-07-03T06:53:18.839Z,24.08
2018-07-03T06:54:18.810Z,24.20
2018-07-03T06:55:18.786Z,24.17
2018-07-03T06:56:18.749Z,24.06
2018-07-03T06:57:18.721Z,24.02
2018-07-03T06:58:18.692Z,24.20
2018-07-03T06:59:18.664Z,24.18
2018-07-03T07:00:18.629Z,23.98
2018-07-03T07:01:18.609Z,24.01
2018-07-03T07:02:18.576Z,24.06
2018-07-03T07:03:18.552Z,24.01
2018-07-03T07:04:18.511Z,24.18
2018-07-03T07:05:18.492Z,24.16
2018-07-03T07:06:18.459Z,24.28
2018-07-03T07:07:18.430Z,24.38
2018-07-03T07:08:18.407Z,24.45
2018-07-03T07:09:18.460Z,24.60
2018-07-03T07:10:18.344Z,24.58
2018-07-03T07:11:18.312Z,24.58
2018-07-03T07:12:18.287Z,24.66
2018-07-03T07:13:18.801Z,24.77
2018-07-03T07:14:18.224Z,24.86
2018-07-03T07:15:18.200Z,25.01
2018-07-03T07:16:18.182Z,25.08
2018-07-03T07:17:18.144Z,25.17
2018-07-03T07:18:18.115Z,25.16
2018-07-03T07:19:18.087Z,25.22
2018-07-03T07:20:18.060Z,25.36
2018-07-03T07:21:18.021Z,25.32
2018-07-03T07:22:18.000Z,25.35
2018-07-03T07:23:18.019Z,25.16
2018-07-03T07:24:17.944Z,25.32
2018-07-03T07:25:17.923Z,25.38
2018-07-03T07:26:17.879Z,25.59
2018-07-03T07:27:17.857Z,25.63
2018-07-03T07:28:17.830Z,25.77
2018-07-03T07:29:17.809Z,26.02
2018-07-03T07:30:17.772Z,25.83
2018-07-03T07:31:17.746Z,25.99
2018-07-03T07:32:17.715Z,25.96
2018-07-03T07:33:17.685Z,25.84
2018-07-03T07:34:17.657Z,26.05
2018-07-03T07:35:17.631Z,26.18
2018-07-03T07:36:17.596Z,26.52
2018-07-03T07:37:17.576Z,26.47
2018-07-03T07:38:17.543Z,26.43
2018-07-03T07:39:17.523Z,26.28
2018-07-03T07:40:17.491Z,26.29
2018-07-03T07:41:17.464Z,26.40
2018-07-03T07:42:17.435Z,26.40
2018-07-03T07:43:17.413Z,26.38
2018-07-03T07:44:17.376Z,26.60
2018-07-03T07:45:17.357Z,26.71
2018-07-03T07:46:17.322Z,26.83
2018-07-03T07:47:17.294Z,27.02
2018-07-03T07:48:17.268Z,27.42
2018-07-03T07:49:17.244Z,27.64
2018-07-03T07:50:17.222Z,27.68
2018-07-03T07:51:17.185Z,27.85
2018-07-03T07:52:17.162Z,27.86
2018-07-03T07:53:17.132Z,27.86
2018-07-03T07:54:17.107Z,27.98
2018-07-03T07:55:17.076Z,27.98
2018-07-03T07:56:17.057Z,28.12
2018-07-03T07:57:17.019Z,28.30
2018-07-03T07:58:16.991Z,28.48
2018-07-03T07:59:16.969Z,28.42
2018-07-03T08:00:16.970Z,28.54
2018-07-03T08:01:16.915Z,28.63
2018-07-03T08:02:16.889Z,28.69
2018-07-03T08:03:16.865Z,28.66
2018-07-03T08:04:16.860Z,28.49
2018-07-03T08:05:16.807Z,28.48
2018-07-03T08:06:16.781Z,28.44
2018-07-03T08:07:16.766Z,28.54
2018-07-03T08:08:16.741Z,28.45
2018-07-03T08:09:16.700Z,28.49
2018-07-03T08:10:16.696Z,28.51
2018-07-03T08:11:16.796Z,28.54
2018-07-03T08:12:16.796Z,28.79
2018-07-03T08:13:16.604Z,28.81
2018-07-03T08:14:16.570Z,29.01
2018-07-03T08:15:16.543Z,29.17
2018-07-03T08:16:16.527Z,29.20
2018-07-03T08:17:16.495Z,29.35
2018-07-03T08:18:16.468Z,29.47
2018-07-03T08:19:16.496Z,29.54
2018-07-03T08:20:16.419Z,29.44
2018-07-03T08:21:16.390Z,29.47
2018-07-03T08:22:16.371Z,29.35
2018-07-03T08:23:16.340Z,29.35
2018-07-03T08:24:16.315Z,29.44
2018-07-03T08:25:16.290Z,29.69
2018-07-03T08:26:16.264Z,30.05
2018-07-03T08:27:16.238Z,30.09
2018-07-03T08:28:16.217Z,30.16
2018-07-03T08:29:16.187Z,30.31
2018-07-03T08:30:16.166Z,30.31
2018-07-03T08:31:16.143Z,30.32
2018-07-03T08:32:16.127Z,30.46
2018-07-03T08:33:16.089Z,30.63
2018-07-03T08:34:16.058Z,30.85
2018-07-03T08:35:16.472Z,30.92
2018-07-03T08:36:16.038Z,31.24
2018-07-03T08:37:15.987Z,31.06
2018-07-03T08:38:15.965Z,30.65
2018-07-03T08:39:15.939Z,30.66
2018-07-03T08:40:15.918Z,30.81
2018-07-03T08:41:15.888Z,30.92
2018-07-03T08:42:15.868Z,30.81
2018-07-03T08:43:15.845Z,30.87
2018-07-03T08:44:15.819Z,30.92
2018-07-03T08:45:15.792Z,31.10
2018-07-03T08:46:15.768Z,30.99
2018-07-03T08:47:15.741Z,30.92
2018-07-03T08:48:15.717Z,31.24
2018-07-03T08:49:15.893Z,31.25
2018-07-03T08:50:15.668Z,31.28
2018-07-03T08:51:15.647Z,31.25
2018-07-03T08:52:15.615Z,31.55
2018-07-03T08:53:15.595Z,31.51
2018-07-03T08:54:16.115Z,31.81
2018-07-03T08:55:16.113Z,31.87
2018-07-03T08:56:15.525Z,32.12
2018-07-03T08:57:15.493Z,32.34
2018-07-03T08:58:15.529Z,32.27
2018-07-03T08:59:15.452Z,32.55
2018-07-03T09:00:15.427Z,32.89
2018-07-03T09:01:15.401Z,32.80
2018-07-03T09:02:15.376Z,32.92
2018-07-03T09:03:15.352Z,32.53
2018-07-03T09:04:15.326Z,32.37
2018-07-03T09:05:15.304Z,32.43
2018-07-03T09:06:15.280Z,32.73
2018-07-03T09:07:15.255Z,32.63
2018-07-03T09:08:15.235Z,32.58
2018-07-03T09:09:15.225Z,32.75
2018-07-03T09:10:15.177Z,32.87
2018-07-03T09:11:15.161Z,32.78
2018-07-03T09:12:15.135Z,32.70
2018-07-03T09:13:15.112Z,32.11
2018-07-03T09:14:15.093Z,32.31
2018-07-03T09:15:15.068Z,31.94
2018-07-03T09:16:15.034Z,31.64
2018-07-03T09:17:15.017Z,31.54
2018-07-03T09:18:15.047Z,31.52
2018-07-03T09:19:14.968Z,31.71
2018-07-03T09:20:14.941Z,32.07
2018-07-03T09:21:14.918Z,32.26
2018-07-03T09:22:15.078Z,32.46
2018-07-03T09:23:14.875Z,32.51
2018-07-03T09:24:14.845Z,32.59
2018-07-03T09:25:14.826Z,32.85
2018-07-03T09:26:14.800Z,32.64
2018-07-03T09:27:14.803Z,32.43
2018-07-03T09:28:14.749Z,32.75
2018-07-03T09:29:14.722Z,32.85
2018-07-03T09:30:14.703Z,33.28
2018-07-03T09:31:14.684Z,33.58
2018-07-03T09:32:14.654Z,33.84
2018-07-03T09:33:14.626Z,34.17
2018-07-03T09:34:14.606Z,34.42
2018-07-03T09:35:14.582Z,34.47
2018-07-03T09:36:14.583Z,34.51
2018-07-03T09:37:14.539Z,34.48
2018-07-03T09:38:14.510Z,34.81
2018-07-03T09:39:14.484Z,34.85
2018-07-03T09:40:14.458Z,35.07
2018-07-03T09:41:14.434Z,35.29
2018-07-03T09:42:14.410Z,35.29
2018-07-03T09:43:14.403Z,35.27
2018-07-03T09:44:14.412Z,35.18
2018-07-03T09:45:14.343Z,35.11
2018-07-03T09:46:14.318Z,35.12
2018-07-03T09:47:14.291Z,35.29
2018-07-03T09:48:14.268Z,35.42
2018-07-03T09:49:14.243Z,35.83
2018-07-03T09:50:14.230Z,35.98
2018-07-03T09:51:14.201Z,36.09
2018-07-03T09:52:14.174Z,36.12
2018-07-03T09:53:14.156Z,36.23
2018-07-03T09:54:14.254Z,36.45
2018-07-03T09:55:14.106Z,36.46
2018-07-03T09:56:14.086Z,36.72
2018-07-03T09:57:14.073Z,36.67
2018-07-03T09:58:14.037Z,36.81
2018-07-03T09:59:14.015Z,36.99
2018-07-03T10:00:13.991Z,37.44
2018-07-03T10:01:13.966Z,37.32
2018-07-03T10:02:13.946Z,37.33
2018-07-03T10:03:13.922Z,37.53
2018-07-03T10:04:13.897Z,37.44
2018-07-03T10:05:13.872Z,37.51
2018-07-03T10:06:13.943Z,37.58
2018-07-03T10:07:13.830Z,37.18
2018-07-03T10:08:13.807Z,36.79
2018-07-03T10:09:13.790Z,37.23
2018-07-03T10:10:13.759Z,37.14
2018-07-03T10:11:14.645Z,36.89
2018-07-03T10:12:13.716Z,37.06
2018-07-03T10:13:13.694Z,37.56
2018-07-03T10:14:13.671Z,37.74
2018-07-03T10:15:13.649Z,37.78
2018-07-03T10:16:13.636Z,38.08
2018-07-03T10:17:13.601Z,38.08
2018-07-03T10:18:13.579Z,38.43
2018-07-03T10:19:13.803Z,38.38
2018-07-03T10:20:13.533Z,38.38
2018-07-03T10:21:13.510Z,38.60
2018-07-03T10:22:13.497Z,38.45
2018-07-03T10:23:13.459Z,38.57
2018-07-03T10:24:13.444Z,38.39
2018-07-03T10:25:13.424Z,38.61
2018-07-03T10:26:14.036Z,38.49
2018-07-03T10:27:13.374Z,38.20
2018-07-03T10:28:13.354Z,37.58
2018-07-03T10:29:13.326Z,37.53
2018-07-03T10:30:13.308Z,37.82
2018-07-03T10:31:13.289Z,38.08
2018-07-03T10:32:13.262Z,38.36
2018-07-03T10:33:13.241Z,38.64
2018-07-03T10:34:13.224Z,38.89
2018-07-03T10:35:13.192Z,38.77
2018-07-03T10:36:13.169Z,39.33
2018-07-03T10:37:13.147Z,38.84
2018-07-03T10:38:13.127Z,38.89
2018-07-03T10:39:13.104Z,39.19
2018-07-03T10:40:13.076Z,39.11
2018-07-03T10:41:13.315Z,39.49
2018-07-03T10:42:13.035Z,39.44
2018-07-03T10:43:13.034Z,40.20
2018-07-03T10:44:12.991Z,40.41
2018-07-03T10:45:12.970Z,41.06
2018-07-03T10:46:12.947Z,41.38
2018-07-03T10:47:12.918Z,41.33
2018-07-03T10:48:12.899Z,40.58
2018-07-03T10:49:12.878Z,40.05
2018-07-03T10:50:12.864Z,39.49
2018-07-03T10:51:12.836Z,39.41
2018-07-03T10:52:12.809Z,39.33
2018-07-03T10:53:12.789Z,39.09
2018-07-03T10:54:12.784Z,39.46
2018-07-03T10:55:12.745Z,39.46
2018-07-03T10:56:12.725Z,40.11
2018-07-03T10:57:12.699Z,39.94
2018-07-03T10:58:12.707Z,40.12
2018-07-03T10:59:12.658Z,40.69
2018-07-03T11:00:12.638Z,40.54
2018-07-03T11:01:12.606Z,40.75
2018-07-03T11:02:12.591Z,40.70
2018-07-03T11:03:12.569Z,41.60
2018-07-03T11:04:12.548Z,41.78
2018-07-03T11:05:12.524Z,42.14
2018-07-03T11:06:12.504Z,42.14
2018-07-03T11:07:12.478Z,42.10
2018-07-03T11:08:12.458Z,41.94
2018-07-03T11:09:12.442Z,41.91
2018-07-03T11:10:12.414Z,42.21
2018-07-03T11:11:12.395Z,42.04
2018-07-03T11:12:12.371Z,42.65
2018-07-03T11:13:12.348Z,43.01
2018-07-03T11:14:12.326Z,43.10
2018-07-03T11:15:12.300Z,42.78
2018-07-03T11:16:12.283Z,43.15
2018-07-03T11:17:12.275Z,43.20
2018-07-03T11:18:12.246Z,43.54
2018-07-03T11:19:12.218Z,43.87
2018-07-03T11:20:12.277Z,44.15
2018-07-03T11:21:12.175Z,44.55
2018-07-03T11:22:12.157Z,44.40
2018-07-03T11:23:12.130Z,43.91
2018-07-03T11:24:12.112Z,43.83
2018-07-03T11:25:12.092Z,43.23
2018-07-03T11:26:12.071Z,43.43
2018-07-03T11:27:12.043Z,42.66
2018-07-03T11:28:12.025Z,43.01
2018-07-03T11:29:12.005Z,43.55
2018-07-03T11:30:11.985Z,43.80
2018-07-03T11:31:11.966Z,44.68
2018-07-03T11:32:11.942Z,44.90
2018-07-03T11:33:11.921Z,44.94
2018-07-03T11:34:11.896Z,44.96
2018-07-03T11:35:11.880Z,45.02
2018-07-03T11:36:11.858Z,45.46
2018-07-03T11:37:11.845Z,45.55
2018-07-03T11:38:11.819Z,45.40
2018-07-03T11:39:11.790Z,45.48
2018-07-03T11:40:11.775Z,44.84
2018-07-03T11:41:11.757Z,45.25
2018-07-03T11:42:11.737Z,45.75
2018-07-03T11:43:11.742Z,46.31
2018-07-03T11:44:11.690Z,46.32
2018-07-03T11:45:11.674Z,46.17
2018-07-03T11:46:11.651Z,46.51
2018-07-03T11:47:11.639Z,46.86
2018-07-03T11:48:11.614Z,47.10
2018-07-03T11:49:11.593Z,47.08
2018-07-03T11:50:11.789Z,46.91
2018-07-03T11:51:11.558Z,46.27
2018-07-03T11:52:11.541Z,46.79
2018-07-03T11:53:11.522Z,47.20
2018-07-03T11:54:11.497Z,47.04
2018-07-03T11:55:11.484Z,46.92
2018-07-03T11:56:11.777Z,46.86
2018-07-03T11:57:11.441Z,46.22
2018-07-03T11:58:11.430Z,46.38
2018-07-03T11:59:11.398Z,46.13
2018-07-03T12:00:11.385Z,46.66
2018-07-03T12:01:11.387Z,45.55
2018-07-03T12:02:11.343Z,46.34
2018-07-03T12:03:11.327Z,46.54
2018-07-03T12:04:11.307Z,45.44
2018-07-03T12:05:11.289Z,45.55
2018-07-03T12:06:11.270Z,46.00
2018-07-03T12:07:11.248Z,46.50
2018-07-03T12:08:11.245Z,46.41
2018-07-03T12:09:11.214Z,45.31
2018-07-03T12:10:11.191Z,45.69
2018-07-03T12:11:11.203Z,45.81
2018-07-03T12:12:11.156Z,45.89
2018-07-03T12:13:11.139Z,45.56
2018-07-03T12:14:11.122Z,45.74
2018-07-03T12:15:11.099Z,44.90
2018-07-03T12:16:11.080Z,44.55
2018-07-03T12:17:11.065Z,45.16
2018-07-03T12:18:11.044Z,44.86
2018-07-03T12:19:11.023Z,45.34
2018-07-03T12:20:11.011Z,45.35
2018-07-03T12:21:10.990Z,45.06
2018-07-03T12:22:10.967Z,45.29
2018-07-03T12:23:10.949Z,45.58
2018-07-03T12:24:10.927Z,46.10
2018-07-03T12:25:10.907Z,45.87
2018-07-03T12:26:10.896Z,46.22
2018-07-03T12:27:10.868Z,46.57
2018-07-03T12:28:10.852Z,46.38
2018-07-03T12:29:10.856Z,46.34
2018-07-03T12:30:10.812Z,46.03
2018-07-03T12:31:10.792Z,45.69
2018-07-03T12:32:10.774Z,46.16
2018-07-03T12:33:10.753Z,45.62
2018-07-03T12:34:10.730Z,45.29
2018-07-03T12:35:10.719Z,45.16
2018-07-03T12:36:10.696Z,45.32
2018-07-03T12:37:10.679Z,44.81
2018-07-03T12:38:10.656Z,45.16
2018-07-03T12:39:10.643Z,44.78
2018-07-03T12:40:10.619Z,44.69
2018-07-03T12:41:10.598Z,45.40
2018-07-03T12:42:10.583Z,45.20
2018-07-03T12:43:10.561Z,44.84
2018-07-03T12:44:10.575Z,44.14
2018-07-03T12:45:10.524Z,43.87
2018-07-03T12:46:10.503Z,42.66
2018-07-03T12:47:10.484Z,42.29
2018-07-03T12:48:10.461Z,41.68
2018-07-03T12:49:10.441Z,42.21
2018-07-03T12:50:10.420Z,42.19
2018-07-03T12:51:10.402Z,42.62
2018-07-03T12:52:10.382Z,42.32